Time;durP1;ratioP1;P1;durP2;ratioP2;P2;SDS_P1;SDS_P2;PMS_P1;PMS_P2;Temp;Humidity;BMP_temperature;BMP_pressure;BME280_temperature;BME280_humidity;BME280_pressure;Samples;Min_cycle;Max_cycle;Signal;HPM_P1;HPM_P2
2023/02/20 00:01:19;;;;;;;24.27;14.85;;;4.40;99.90;;;;;;5016865;28;20041;-62
2023/02/20 00:03:45;;;;;;;26.25;15.13;;;4.40;99.90;;;;;;5018123;28;20111;-63
2023/02/20 00:06:11;;;;;;;26.65;15.93;;;4.40;99.90;;;;;;5018050;28;20053;-63
2023/02/20 00:08:36;;;;;;;20.02;13.15;;;4.30;99.90;;;;;;5015844;28;20049;-62
2023/02/20 00:11:02;;;;;;;20.48;12.48;;;4.30;99.90;;;;;;5019343;28;20060;-61
2023/02/20 00:13:28;;;;;;;19.55;12.20;;;4.30;99.90;;;;;;5016034;28;20153;-62
2023/02/20 00:15:54;;;;;;;21.42;12.68;;;4.30;99.90;;;;;;5015812;28;20705;-62
2023/02/20 00:18:19;;;;;;;21.02;12.95;;;4.20;99.90;;;;;;5007885;28;20524;-63
2023/02/20 00:20:45;;;;;;;21.55;12.60;;;4.20;99.90;;;;;;5002060;28;20459;-60
2023/02/20 00:23:11;;;;;;;22.60;13.35;;;4.10;99.90;;;;;;5003701;28;20034;-62
2023/02/20 00:25:36;;;;;;;20.90;11.73;;;4.10;99.90;;;;;;5004081;28;20081;-63
2023/02/20 00:28:02;;;;;;;17.70;11.52;;;4.10;99.90;;;;;;5005684;28;20038;-62
2023/02/20 00:30:28;;;;;;;16.08;10.80;;;4.00;99.90;;;;;;5001980;28;20038;-61
2023/02/20 00:32:55;;;;;;;16.65;10.13;;;4.00;99.90;;;;;;5005062;28;20038;-62
2023/02/20 00:35:22;;;;;;;16.55;10.82;;;4.00;99.90;;;;;;5004516;28;20117;-61
2023/02/20 00:37:49;;;;;;;16.13;10.10;;;3.90;99.90;;;;;;5002764;28;20034;-61
2023/02/20 00:40:16;;;;;;;15.82;9.95;;;3.90;99.90;;;;;;5005581;28;20184;-62
2023/02/20 00:42:42;;;;;;;15.15;10.70;;;3.80;99.90;;;;;;5001441;28;20041;-60
2023/02/20 00:45:09;;;;;;;15.88;9.98;;;3.80;99.90;;;;;;5005313;28;20180;-62
2023/02/20 00:47:35;;;;;;;14.48;9.73;;;3.80;99.90;;;;;;5004761;28;20061;-61
2023/02/20 00:50:01;;;;;;;12.63;8.07;;;3.80;99.90;;;;;;5004981;28;20494;-63
2023/02/20 00:52:26;;;;;;;12.82;8.38;;;3.70;99.90;;;;;;5006565;28;20049;-61
2023/02/20 00:54:52;;;;;;;12.52;8.30;;;3.70;99.90;;;;;;5007438;28;20041;-61
2023/02/20 00:57:18;;;;;;;12.27;7.60;;;3.70;99.90;;;;;;5004199;28;20033;-62
2023/02/20 00:59:43;;;;;;;10.82;6.78;;;3.60;99.90;;;;;;5003938;28;20510;-61
2023/02/20 01:02:09;;;;;;;9.05;6.10;;;3.60;99.90;;;;;;5000863;28;20033;-62
2023/02/20 01:04:35;;;;;;;10.18;6.35;;;3.60;99.90;;;;;;4998275;28;20073;-62
2023/02/20 01:07:01;;;;;;;8.27;5.90;;;3.60;99.90;;;;;;5003978;28;20142;-61
2023/02/20 01:09:27;;;;;;;10.18;5.93;;;3.60;99.90;;;;;;5005137;28;20417;-60
2023/02/20 01:11:53;;;;;;;9.63;5.57;;;3.60;99.90;;;;;;5003635;28;20092;-63
2023/02/20 01:14:18;;;;;;;9.68;6.43;;;3.60;99.90;;;;;;5004865;28;20044;-63
2023/02/20 01:16:50;;;;;;;15.43;8.35;;;3.60;99.90;;;;;;5002431;28;20048;-63
2023/02/20 01:19:16;;;;;;;9.65;6.00;;;3.60;99.90;;;;;;5005486;28;20038;-62
2023/02/20 01:21:42;;;;;;;8.93;6.00;;;3.60;99.90;;;;;;5003354;28;20137;-62
2023/02/20 01:24:08;;;;;;;8.07;5.28;;;3.60;99.90;;;;;;5004779;28;20684;-63
2023/02/20 01:26:35;;;;;;;8.68;5.57;;;3.60;99.90;;;;;;5001109;28;20569;-63
2023/02/20 01:29:02;;;;;;;10.48;6.03;;;3.60;99.90;;;;;;5005962;28;20152;-63
2023/02/20 01:31:27;;;;;;;8.98;5.07;;;3.60;99.90;;;;;;5002409;28;20038;-62
2023/02/20 01:33:53;;;;;;;8.93;5.47;;;3.60;99.90;;;;;;5005756;28;20052;-63
2023/02/20 01:36:19;;;;;;;8.70;5.70;;;3.60;99.90;;;;;;5037818;28;20037;-63
2023/02/20 01:38:47;;;;;;;8.77;6.03;;;3.50;99.90;;;;;;5004361;28;20103;-62
2023/02/20 01:41:13;;;;;;;8.68;5.88;;;3.60;99.90;;;;;;5003269;28;20045;-61
2023/02/20 01:43:40;;;;;;;8.50;5.78;;;3.50;99.90;;;;;;5003575;28;20037;-63
2023/02/20 01:46:43;;;;;;;9.30;6.30;;;3.50;99.90;;;;;;5005688;28;20711;-63
2023/02/20 01:49:12;;;;;;;15.05;6.25;;;3.50;99.90;;;;;;4924698;29;20038;-63
2023/02/20 01:51:42;;;;;;;11.50;6.40;;;3.50;99.90;;;;;;4987612;28;20425;-61
2023/02/20 01:54:13;;;;;;;9.13;6.10;;;3.50;99.90;;;;;;5002944;28;20053;-62
2023/02/20 01:56:39;;;;;;;10.20;6.82;;;3.40;99.90;;;;;;5002580;28;20034;-61
2023/02/20 01:59:06;;;;;;;9.05;6.32;;;3.40;99.90;;;;;;5002992;28;20100;-63
2023/02/20 02:01:32;;;;;;;9.27;6.10;;;3.30;99.90;;;;;;5000777;28;20133;-64
2023/02/20 02:04:06;;;;;;;11.25;7.38;;;3.40;99.90;;;;;;5003326;28;20121;-62
2023/02/20 02:06:36;;;;;;;10.80;6.22;;;3.30;99.90;;;;;;5002550;28;20345;-60
2023/02/20 02:09:17;;;;;;;12.82;7.53;;;3.30;99.90;;;;;;5003797;28;20037;-63
2023/02/20 02:11:43;;;;;;;15.05;7.00;;;3.30;99.90;;;;;;5001015;28;20053;-62
2023/02/20 02:14:09;;;;;;;12.75;8.15;;;3.30;99.90;;;;;;5002834;28;20128;-63
2023/02/20 02:17:03;;;;;;;11.73;6.97;;;3.20;99.90;;;;;;5001018;28;20236;-61
2023/02/20 02:20:01;;;;;;;14.35;8.07;;;3.20;99.90;;;;;;5003046;28;20048;-60
2023/02/20 02:22:57;;;;;;;16.08;9.25;;;3.20;99.90;;;;;;5002975;28;20065;-62
2023/02/20 02:25:32;;;;;;;14.60;9.27;;;3.20;99.90;;;;;;5000171;28;20045;-62
2023/02/20 02:28:34;;;;;;;16.92;10.32;;;3.20;99.90;;;;;;5004576;28;20087;-61
2023/02/20 02:31:11;;;;;;;19.65;10.13;;;3.20;99.90;;;;;;5001290;28;20046;-61
2023/02/20 02:33:42;;;;;;;18.92;9.95;;;3.20;99.90;;;;;;5000181;28;20347;-63
2023/02/20 02:36:27;;;;;;;17.33;10.25;;;3.20;99.90;;;;;;5004586;28;20442;-62
2023/02/20 02:39:14;;;;;;;20.95;11.73;;;3.20;99.90;;;;;;5003585;28;20467;-63
2023/02/20 02:42:14;;;;;;;18.38;11.40;;;3.30;99.90;;;;;;4999757;28;20038;-62
2023/02/20 02:44:47;;;;;;;23.38;11.60;;;3.30;99.90;;;;;;5000548;28;20045;-62
2023/02/20 02:47:34;;;;;;;21.83;12.80;;;3.30;99.90;;;;;;5001989;28;20087;-62
2023/02/20 02:50:14;;;;;;;20.95;11.52;;;3.30;99.90;;;;;;4998854;28;20037;-63
2023/02/20 02:52:49;;;;;;;25.83;13.88;;;3.40;99.90;;;;;;5001903;28;20045;-61
2023/02/20 02:55:27;;;;;;;28.13;15.40;;;3.40;99.90;;;;;;5003911;28;20935;-62
2023/02/20 02:57:53;;;;;;;30.02;15.18;;;3.50;99.90;;;;;;5004159;28;20106;-62
2023/02/20 03:00:19;;;;;;;26.75;14.25;;;3.60;99.90;;;;;;5002375;28;20792;-61
2023/02/20 03:03:03;;;;;;;31.73;17.10;;;3.60;99.90;;;;;;5003090;28;20073;-62
2023/02/20 03:05:54;;;;;;;30.02;16.63;;;3.60;99.90;;;;;;5001429;28;20038;-63
2023/02/20 03:08:31;;;;;;;28.27;15.65;;;3.70;99.90;;;;;;5004117;28;20049;-61
2023/02/20 03:11:11;;;;;;;30.42;16.60;;;3.70;99.90;;;;;;5003090;28;20040;-63
2023/02/20 03:16:43;;;;;;;32.83;16.33;;;3.80;99.90;;;;;;5000305;28;20045;-63
2023/02/20 03:19:12;;;;;;;34.35;16.88;;;3.80;99.90;;;;;;5001560;28;20038;-60
2023/02/20 03:21:43;;;;;;;39.90;16.92;;;3.80;99.90;;;;;;4999036;28;20049;-63
2023/02/20 03:24:12;;;;;;;34.92;17.98;;;3.90;99.90;;;;;;5001366;28;20042;-61
2023/02/20 03:26:40;;;;;;;33.00;17.00;;;3.90;99.90;;;;;;4999226;28;20149;-62
2023/02/20 03:29:12;;;;;;;34.33;17.38;;;3.80;99.90;;;;;;5001633;28;20033;-62
2023/02/20 03:31:46;;;;;;;31.05;15.98;;;3.80;99.90;;;;;;5000399;28;20038;-62
2023/02/20 03:45:46;;;;;;;36.28;16.98;;;3.70;99.90;;;;;;5002549;28;20038;-59
2023/02/20 03:48:30;;;;;;;33.42;16.73;;;3.60;99.90;;;;;;5001619;28;20038;-61
2023/02/20 03:50:56;;;;;;;37.30;17.33;;;3.60;99.90;;;;;;5001945;28;20049;-62
2023/02/20 03:53:23;;;;;;;37.03;17.67;;;3.60;99.90;;;;;;5003142;28;20038;-61
2023/02/20 03:55:52;;;;;;;34.88;16.52;;;3.60;99.90;;;;;;5005876;28;20037;-62
2023/02/20 03:58:23;;;;;;;33.42;16.65;;;3.60;99.90;;;;;;5004779;28;20069;-62
2023/02/20 04:00:50;;;;;;;35.97;16.75;;;3.60;99.90;;;;;;5003689;28;20080;-63
2023/02/20 04:03:21;;;;;;;34.30;17.52;;;3.60;99.90;;;;;;5006159;28;20038;-62
2023/02/20 04:05:51;;;;;;;34.45;16.83;;;3.60;99.90;;;;;;5006769;28;20070;-62
2023/02/20 04:08:37;;;;;;;30.73;15.98;;;3.60;99.90;;;;;;5004764;28;20037;-62
2023/02/20 04:11:18;;;;;;;33.78;15.25;;;3.60;99.90;;;;;;5006284;28;20127;-62
2023/02/20 04:13:46;;;;;;;30.58;15.57;;;3.60;99.90;;;;;;5002759;28;20121;-61
2023/02/20 04:16:12;;;;;;;29.95;15.73;;;3.60;99.90;;;;;;5006569;28;20038;-61
2023/02/20 04:18:38;;;;;;;31.52;16.10;;;3.60;99.90;;;;;;5006893;28;20537;-60
2023/02/20 04:21:10;;;;;;;31.25;15.50;;;3.70;99.90;;;;;;5007794;28;20038;-60
2023/02/20 04:23:41;;;;;;;31.88;15.20;;;3.70;99.90;;;;;;5003927;28;20482;-59
2023/02/20 04:26:17;;;;;;;31.65;16.67;;;3.70;99.90;;;;;;5004750;28;20498;-61
2023/02/20 04:28:43;;;;;;;34.15;15.80;;;3.70;99.90;;;;;;5012655;28;20133;-62
2023/02/20 04:31:12;;;;;;;31.20;15.10;;;3.70;99.90;;;;;;5011537;28;20061;-61
2023/02/20 04:33:37;;;;;;;27.92;14.43;;;3.70;99.90;;;;;;5024501;28;20038;-60
2023/02/20 04:36:03;;;;;;;32.10;15.45;;;3.70;99.90;;;;;;5023928;28;20389;-62
2023/02/20 04:38:29;;;;;;;30.95;16.33;;;3.80;99.90;;;;;;5027124;28;20033;-62
2023/02/20 04:40:55;;;;;;;26.00;14.95;;;3.80;99.90;;;;;;5027514;28;20040;-62
2023/02/20 04:43:20;;;;;;;29.73;15.95;;;3.90;99.90;;;;;;5026776;28;20477;-61
2023/02/20 04:45:46;;;;;;;27.80;15.50;;;3.90;99.90;;;;;;5024749;28;20060;-62
2023/02/20 04:48:12;;;;;;;31.55;17.02;;;3.90;99.90;;;;;;5025980;28;20045;-61
2023/02/20 04:50:37;;;;;;;33.40;17.75;;;3.90;99.90;;;;;;5025215;28;20073;-62
2023/02/20 04:53:03;;;;;;;31.60;17.63;;;3.90;99.90;;;;;;5024750;28;20033;-61
2023/02/20 04:55:29;;;;;;;31.60;16.90;;;3.90;99.90;;;;;;5023915;28;20041;-61
2023/02/20 04:57:57;;;;;;;32.38;15.90;;;3.90;99.90;;;;;;5026939;28;20037;-63
2023/02/20 05:00:24;;;;;;;29.15;16.92;;;3.90;99.90;;;;;;5023659;28;20046;-62
2023/02/20 05:02:50;;;;;;;27.25;14.13;;;3.90;99.90;;;;;;5023086;28;20080;-61
2023/02/20 05:05:24;;;;;;;28.05;13.77;;;3.90;99.90;;;;;;5023424;28;20057;-61
2023/02/20 05:07:57;;;;;;;26.10;13.43;;;3.90;99.90;;;;;;5021876;28;20153;-63
2023/02/20 05:10:24;;;;;;;25.20;12.68;;;3.90;99.90;;;;;;5021215;28;20038;-63
2023/02/20 05:12:49;;;;;;;25.80;13.43;;;4.00;99.90;;;;;;5023371;28;20041;-62
2023/02/20 05:15:15;;;;;;;23.67;12.88;;;4.00;99.90;;;;;;5020296;28;20087;-62
2023/02/20 05:17:41;;;;;;;23.08;12.88;;;4.00;99.90;;;;;;5023647;28;20037;-62
2023/02/20 05:20:08;;;;;;;22.02;11.77;;;4.10;99.90;;;;;;5022993;28;20087;-61
2023/02/20 05:22:34;;;;;;;21.02;10.65;;;4.10;99.90;;;;;;5024606;28;20095;-62
2023/02/20 05:24:59;;;;;;;24.77;12.13;;;4.10;99.90;;;;;;5024079;28;20049;-62
2023/02/20 05:27:25;;;;;;;18.33;10.75;;;4.10;99.90;;;;;;5020983;28;20091;-63
2023/02/20 05:29:54;;;;;;;20.45;10.20;;;4.20;99.90;;;;;;5024021;28;20040;-62
2023/02/20 05:32:21;;;;;;;19.88;10.27;;;4.20;99.90;;;;;;5022220;28;20052;-62
2023/02/20 05:34:47;;;;;;;16.10;8.93;;;4.20;99.90;;;;;;5024091;28;20060;-63
2023/02/20 05:37:15;;;;;;;16.90;9.45;;;4.20;99.90;;;;;;5021917;28;20037;-60
2023/02/20 05:39:41;;;;;;;15.07;8.68;;;4.20;99.90;;;;;;5025777;28;20034;-64
2023/02/20 05:42:08;;;;;;;16.35;8.00;;;4.20;99.90;;;;;;5022927;28;20559;-63
2023/02/20 05:44:34;;;;;;;15.23;7.22;;;4.20;99.90;;;;;;5024179;28;20081;-62
2023/02/20 05:47:00;;;;;;;14.85;7.35;;;4.20;99.90;;;;;;5022563;28;20087;-63
2023/02/20 05:49:26;;;;;;;14.07;6.75;;;4.30;99.90;;;;;;5023410;28;20049;-62
2023/02/20 05:51:54;;;;;;;12.27;6.90;;;4.30;99.90;;;;;;5022152;28;20497;-62
2023/02/20 05:54:20;;;;;;;13.32;6.05;;;4.30;99.90;;;;;;5025304;28;20076;-60
2023/02/20 05:56:46;;;;;;;13.73;5.90;;;4.40;99.90;;;;;;5024324;28;20507;-62
2023/02/20 05:59:13;;;;;;;11.23;5.43;;;4.40;99.90;;;;;;5024314;28;20045;-60
2023/02/20 06:01:39;;;;;;;11.68;4.82;;;4.40;99.90;;;;;;5019523;28;20045;-62
2023/02/20 06:04:05;;;;;;;9.43;4.75;;;4.40;99.90;;;;;;5021131;28;20044;-61
2023/02/20 06:06:41;;;;;;;11.73;4.40;;;4.40;99.90;;;;;;5022348;28;20063;-62
2023/02/20 06:09:14;;;;;;;15.40;4.40;;;4.50;99.90;;;;;;5020635;28;20037;-61
2023/02/20 06:11:40;;;;;;;8.43;3.97;;;4.50;99.90;;;;;;5020905;28;20786;-63
2023/02/20 06:14:06;;;;;;;7.00;3.72;;;4.60;99.90;;;;;;5020298;28;20037;-61
2023/02/20 06:16:33;;;;;;;9.20;3.25;;;4.60;99.90;;;;;;5019069;28;20401;-62
2023/02/20 06:19:01;;;;;;;7.63;3.20;;;4.60;99.90;;;;;;5025134;28;20666;-61
2023/02/20 06:21:27;;;;;;;5.53;2.60;;;4.60;99.90;;;;;;5021881;28;20049;-62
2023/02/20 06:23:53;;;;;;;6.38;3.08;;;4.70;99.90;;;;;;5021434;28;20053;-61
2023/02/20 06:26:21;;;;;;;8.40;2.95;;;4.60;99.90;;;;;;5023135;28;20049;-63
2023/02/20 06:28:49;;;;;;;7.20;3.20;;;4.60;99.90;;;;;;5020863;28;20061;-60
2023/02/20 06:31:23;;;;;;;11.38;3.15;;;4.60;99.90;;;;;;5019385;28;20068;-61
2023/02/20 06:33:49;;;;;;;15.70;2.90;;;4.60;99.90;;;;;;5023152;28;20049;-59
2023/02/20 06:36:25;;;;;;;7.63;2.00;;;4.70;99.90;;;;;;5018516;28;20048;-53
2023/02/20 06:38:51;;;;;;;6.95;2.58;;;4.70;99.90;;;;;;5020156;28;20497;-61
2023/02/20 06:41:17;;;;;;;7.13;2.20;;;4.80;99.90;;;;;;5018940;28;20052;-57
2023/02/20 06:43:43;;;;;;;6.00;2.20;;;4.80;99.90;;;;;;5022107;28;20132;-61
2023/02/20 06:46:09;;;;;;;5.57;2.33;;;4.80;99.90;;;;;;5017760;28;22477;-61
2023/02/20 06:48:34;;;;;;;4.75;2.05;;;4.80;99.90;;;;;;5023970;28;20855;-65
2023/02/20 06:51:00;;;;;;;4.93;1.85;;;4.90;99.90;;;;;;5018008;28;20554;-63
2023/02/20 06:53:25;;;;;;;10.35;1.63;;;4.90;99.90;;;;;;5020555;28;20040;-64
2023/02/20 06:55:51;;;;;;;4.82;1.70;;;5.00;99.90;;;;;;5018725;28;20033;-64
2023/02/20 06:58:16;;;;;;;6.38;1.88;;;5.00;99.90;;;;;;5020583;28;20057;-65
2023/02/20 07:00:42;;;;;;;5.47;1.73;;;5.00;99.90;;;;;;5018074;28;20061;-61
2023/02/20 07:03:08;;;;;;;5.13;1.77;;;5.00;99.90;;;;;;5023402;28;20029;-64
2023/02/20 07:05:33;;;;;;;6.10;1.85;;;5.00;99.90;;;;;;5018807;28;20041;-64
2023/02/20 07:07:59;;;;;;;6.88;1.60;;;5.10;99.90;;;;;;5022855;28;20033;-63
2023/02/20 07:10:24;;;;;;;4.80;1.73;;;5.10;99.90;;;;;;5020732;28;20444;-64
2023/02/20 07:12:50;;;;;;;4.50;2.00;;;5.10;99.90;;;;;;5023025;28;20036;-63
2023/02/20 07:15:16;;;;;;;4.68;1.90;;;5.10;99.90;;;;;;5018282;28;20111;-63
2023/02/20 07:17:41;;;;;;;4.47;1.85;;;5.20;99.90;;;;;;5026762;28;20064;-62
2023/02/20 07:20:07;;;;;;;;;;;5.20;99.90;;;;;;5022069;28;20045;-63
2023/02/20 07:22:33;;;;;;;4.45;1.17;;;5.30;99.90;;;;;;5023448;28;20741;-65
2023/02/20 07:24:58;;;;;;;4.90;1.73;;;5.30;99.90;;;;;;5020836;28;20037;-62
2023/02/20 07:27:24;;;;;;;3.83;1.80;;;5.30;99.90;;;;;;5020796;28;20420;-64
2023/02/20 07:29:50;;;;;;;3.45;1.63;;;5.30;99.90;;;;;;5025757;28;20046;-63
2023/02/20 07:32:19;;;;;;;7.10;1.85;;;5.30;99.90;;;;;;5023592;28;20041;-63
2023/02/20 07:34:46;;;;;;;8.27;1.90;;;5.30;99.90;;;;;;5028857;28;20064;-63
2023/02/20 07:37:13;;;;;;;4.53;1.80;;;5.40;99.90;;;;;;5023755;28;20453;-63
2023/02/20 07:39:39;;;;;;;4.53;1.85;;;5.30;99.90;;;;;;5028119;28;20090;-64
2023/02/20 07:42:05;;;;;;;4.03;1.90;;;5.40;99.90;;;;;;5027377;28;20046;-63
2023/02/20 07:44:31;;;;;;;7.32;2.30;;;5.30;99.90;;;;;;5026747;28;20045;-64
2023/02/20 07:46:57;;;;;;;7.95;2.13;;;5.40;99.90;;;;;;5026180;28;20064;-64
2023/02/20 07:49:22;;;;;;;8.57;2.20;;;5.40;99.90;;;;;;5026546;28;20717;-63
2023/02/20 07:51:48;;;;;;;4.35;1.83;;;5.40;99.90;;;;;;5028624;28;20038;-65
2023/02/20 07:54:14;;;;;;;8.68;2.10;;;5.40;99.90;;;;;;5031486;28;20057;-63
2023/02/20 07:56:40;;;;;;;7.15;2.10;;;5.50;99.90;;;;;;5029160;28;20045;-63
2023/02/20 07:59:06;;;;;;;4.93;1.85;;;5.50;99.90;;;;;;5032554;28;20038;-64
2023/02/20 08:01:31;;;;;;;7.00;2.20;;;5.50;99.90;;;;;;5028523;28;20196;-64
2023/02/20 08:03:57;;;;;;;2.95;1.75;;;5.60;99.90;;;;;;5029868;28;20044;-64
2023/02/20 08:06:23;;;;;;;11.85;1.98;;;5.60;99.90;;;;;;5022471;28;20041;-64
2023/02/20 08:08:50;;;;;;;6.20;1.45;;;5.60;99.90;;;;;;5024150;28;20457;-64
2023/02/20 08:11:17;;;;;;;4.75;1.90;;;5.70;99.90;;;;;;5029395;28;20049;-63
2023/02/20 08:13:43;;;;;;;4.65;1.60;;;5.70;99.90;;;;;;5032622;28;20041;-64
2023/02/20 08:16:09;;;;;;;5.35;1.85;;;5.70;99.90;;;;;;5028298;28;20099;-64
2023/02/20 08:18:36;;;;;;;3.20;1.85;;;5.70;99.90;;;;;;5026256;28;20037;-64
2023/02/20 08:21:02;;;;;;;8.23;3.00;;;5.70;99.90;;;;;;5051636;28;20037;-65
2023/02/20 08:23:27;;;;;;;5.55;2.50;;;5.80;99.90;;;;;;5019781;28;20036;-65
2023/02/20 08:25:53;;;;;;;7.53;2.35;;;5.80;99.90;;;;;;5020005;28;20045;-64
2023/02/20 08:28:19;;;;;;;7.30;2.88;;;5.80;99.90;;;;;;5024783;28;20140;-63
2023/02/20 08:30:46;;;;;;;10.20;3.00;;;5.80;99.90;;;;;;5022984;28;20140;-64
2023/02/20 08:33:12;;;;;;;6.60;2.40;;;5.80;99.90;;;;;;5023346;28;20038;-66
2023/02/20 08:35:38;;;;;;;8.07;2.63;;;5.90;99.90;;;;;;5022769;28;20042;-65
2023/02/20 08:38:21;;;;;;;6.80;3.58;;;5.90;99.90;;;;;;5023566;28;20041;-62
2023/02/20 08:40:47;;;;;;;6.55;2.53;;;6.00;99.90;;;;;;5020914;28;20426;-63
2023/02/20 08:43:12;;;;;;;8.35;2.78;;;6.10;99.90;;;;;;5032423;28;20050;-62
2023/02/20 08:45:38;;;;;;;;;;;6.10;99.90;;;;;;5025041;28;20046;-64
2023/02/20 08:48:03;;;;;;;8.00;3.17;;;6.10;99.90;;;;;;5026695;28;19924;-63
2023/02/20 08:50:29;;;;;;;;;;;6.20;99.90;;;;;;5021961;28;20691;-63
2023/02/20 08:52:54;;;;;;;6.15;2.67;;;6.30;99.90;;;;;;5021745;28;19979;-63
2023/02/20 08:55:20;;;;;;;7.50;3.20;;;6.30;99.90;;;;;;5024251;28;20616;-61
2023/02/20 08:57:45;;;;;;;11.32;3.25;;;6.30;99.90;;;;;;5024679;28;20585;-63
2023/02/20 09:00:14;;;;;;;5.05;2.80;;;6.30;99.90;;;;;;5022120;28;20037;-64
2023/02/20 09:02:41;;;;;;;7.57;2.50;;;6.40;99.90;;;;;;5026064;28;20033;-63
2023/02/20 09:05:06;;;;;;;12.75;4.13;;;6.40;99.90;;;;;;5024947;28;20680;-62
2023/02/20 09:07:32;;;;;;;10.20;3.15;;;6.50;99.90;;;;;;5022381;28;20084;-64
2023/02/20 09:09:58;;;;;;;5.85;2.75;;;6.40;99.90;;;;;;5024528;28;20030;-62
2023/02/20 09:12:23;;;;;;;;;;;6.60;99.90;;;;;;5023797;28;20091;-63
2023/02/20 09:14:49;;;;;;;10.18;3.58;;;6.70;99.90;;;;;;5019357;28;20007;-62
2023/02/20 09:17:15;;;;;;;;;;;6.70;99.90;;;;;;5022099;28;20394;-63
2023/02/20 09:19:41;;;;;;;8.38;2.92;;;6.70;99.90;;;;;;5024273;28;19921;-62
2023/02/20 09:22:06;;;;;;;6.57;2.95;;;6.90;99.90;;;;;;5021564;28;20088;-60
2023/02/20 09:24:33;;;;;;;6.43;3.00;;;7.00;99.90;;;;;;5025486;28;20044;-64
2023/02/20 09:27:05;;;;;;;4.75;2.83;;;7.10;99.90;;;;;;5025570;28;20048;-62
2023/02/20 09:29:30;;;;;;;6.35;2.60;;;7.20;99.90;;;;;;5023643;28;20073;-62
2023/02/20 09:31:56;;;;;;;;;;;7.10;99.90;;;;;;5020542;28;20660;-62
2023/02/20 09:34:22;;;;;;;11.45;3.53;;;7.00;99.90;;;;;;5022745;28;19927;-62
2023/02/20 09:36:48;;;;;;;7.68;2.95;;;6.90;99.90;;;;;;5021613;28;20037;-61
2023/02/20 09:39:16;;;;;;;5.30;2.97;;;6.90;99.90;;;;;;5023984;28;20421;-64
2023/02/20 09:42:02;;;;;;;10.73;3.55;;;6.80;99.90;;;;;;5023252;28;20992;-62
2023/02/20 09:44:30;;;;;;;6.18;3.80;;;6.80;99.90;;;;;;5020388;28;20582;-62
2023/02/20 09:47:02;;;;;;;6.88;3.10;;;6.80;99.90;;;;;;5020354;28;20513;-62
2023/02/20 09:49:37;;;;;;;4.47;2.78;;;6.70;99.90;;;;;;5021712;28;20049;-62
2023/02/20 09:52:09;;;;;;;7.07;3.55;;;6.80;99.90;;;;;;5021734;28;20037;-65
2023/02/20 09:55:03;;;;;;;11.27;3.97;;;6.70;99.90;;;;;;5023198;28;20041;-64
2023/02/20 09:57:31;;;;;;;9.07;3.80;;;6.70;99.90;;;;;;5022146;28;20505;-62
2023/02/20 10:00:21;;;;;;;11.50;3.90;;;6.70;99.90;;;;;;5023059;28;20033;-61
2023/02/20 10:03:00;;;;;;;7.45;3.60;;;6.70;99.90;;;;;;5020882;28;20049;-63
2023/02/20 10:05:28;;;;;;;9.15;4.07;;;6.60;99.90;;;;;;5022567;28;20813;-61
2023/02/20 10:07:54;;;;;;;10.20;4.70;;;6.60;99.90;;;;;;5028146;28;20045;-63
2023/02/20 10:10:27;;;;;;;8.05;4.32;;;6.60;99.90;;;;;;5021402;28;20037;-63
2023/02/20 10:13:02;;;;;;;9.68;4.72;;;6.60;99.90;;;;;;5022311;28;20033;-63
2023/02/20 10:16:13;;;;;;;9.05;4.65;;;6.60;99.90;;;;;;5021184;28;20045;-64
2023/02/20 10:19:30;;;;;;;14.07;4.90;;;6.70;99.90;;;;;;5016235;28;20049;-64
2023/02/20 10:22:29;;;;;;;9.65;4.40;;;6.90;99.90;;;;;;4978291;28;20046;-64
2023/02/20 10:25:20;;;;;;;10.68;4.45;;;7.20;99.90;;;;;;5018914;28;20117;-61
2023/02/20 10:27:45;;;;;;;7.68;4.43;;;7.40;99.90;;;;;;5014726;28;20203;-63
2023/02/20 10:30:27;;;;;;;9.80;4.95;;;7.60;99.90;;;;;;5019411;28;20132;-63
2023/02/20 10:32:59;;;;;;;10.30;5.40;;;7.80;99.90;;;;;;5045904;28;20152;-64
2023/02/20 10:35:38;;;;;;;11.07;5.57;;;7.90;99.90;;;;;;5022407;28;20708;-66
2023/02/20 10:38:09;;;;;;;9.73;4.95;;;7.90;99.90;;;;;;5023817;28;20148;-65
2023/02/20 10:40:43;;;;;;;9.05;5.35;;;7.90;99.90;;;;;;5022708;28;20454;-65
2023/02/20 10:43:15;;;;;;;10.20;5.10;;;7.90;99.90;;;;;;5020305;28;20117;-61
2023/02/20 10:45:56;;;;;;;10.05;4.93;;;7.90;99.90;;;;;;5018770;28;20784;-62
2023/02/20 10:48:27;;;;;;;13.77;5.30;;;7.90;99.90;;;;;;5027990;28;20037;-65
2023/02/20 10:51:01;;;;;;;10.70;6.20;;;8.00;99.90;;;;;;5021619;28;20037;-64
2023/02/20 10:53:57;;;;;;;10.40;5.97;;;8.00;99.90;;;;;;5021512;28;20588;-63
2023/02/20 10:56:34;;;;;;;11.18;5.53;;;8.10;99.90;;;;;;5017550;28;20119;-62
2023/02/20 10:59:06;;;;;;;10.95;6.45;;;8.20;99.90;;;;;;5023294;28;20037;-63
2023/02/20 11:01:34;;;;;;;12.85;6.35;;;8.10;99.90;;;;;;5017501;28;20033;-62
2023/02/20 11:04:08;;;;;;;9.75;5.72;;;8.20;99.90;;;;;;5016082;28;20044;-66
2023/02/20 11:06:43;;;;;;;11.43;6.55;;;8.20;99.90;;;;;;5020794;28;20446;-67
2023/02/20 11:09:09;;;;;;;15.50;6.82;;;8.20;99.90;;;;;;5018578;28;20043;-62
2023/02/20 11:11:39;;;;;;;;;;;8.20;99.90;;;;;;5020478;28;20033;-64
2023/02/20 11:14:14;;;;;;;11.18;6.70;;;8.30;99.90;;;;;;5020272;28;19959;-65
2023/02/20 11:16:55;;;;;;;13.88;6.75;;;8.50;99.90;;;;;;5017589;28;20144;-63
2023/02/20 11:19:46;;;;;;;9.07;6.43;;;8.50;99.90;;;;;;5023489;28;20052;-62
2023/02/20 11:22:12;;;;;;;14.70;7.20;;;8.50;99.90;;;;;;5022033;28;20041;-62
2023/02/20 11:24:39;;;;;;;10.00;6.72;;;8.50;99.90;;;;;;5023984;28;20512;-63
2023/02/20 11:27:14;;;;;;;11.43;7.40;;;8.50;99.90;;;;;;5020748;28;20067;-63
2023/02/20 11:29:47;;;;;;;10.15;6.82;;;8.50;99.90;;;;;;5022468;28;20033;-65
2023/02/20 11:32:24;;;;;;;12.25;6.93;;;8.50;99.90;;;;;;5017704;28;20076;-63
2023/02/20 11:35:28;;;;;;;10.43;6.43;;;8.60;99.90;;;;;;5018904;28;20677;-62
2023/02/20 11:38:16;;;;;;;13.27;7.07;;;8.60;99.90;;;;;;5007327;28;20041;-63
2023/02/20 11:40:43;;;;;;;10.30;6.70;;;8.60;99.90;;;;;;5019272;28;20033;-61
2023/02/20 11:43:40;;;;;;;9.68;6.97;;;8.50;99.90;;;;;;5021913;28;20037;-67
2023/02/20 11:46:16;;;;;;;14.68;6.97;;;8.50;99.90;;;;;;5018659;28;20041;-64
2023/02/20 11:49:04;;;;;;;16.55;7.35;;;8.50;99.90;;;;;;5020816;28;20037;-61
2023/02/20 11:51:41;;;;;;;13.02;6.63;;;8.50;99.90;;;;;;5019220;28;20038;-61
2023/02/20 11:54:20;;;;;;;10.77;6.72;;;8.60;99.90;;;;;;5017121;28;20037;-62
2023/02/20 11:57:05;;;;;;;9.43;6.18;;;8.60;99.90;;;;;;5018031;28;20053;-62
2023/02/20 11:59:39;;;;;;;11.02;6.80;;;8.70;99.90;;;;;;5020853;28;20080;-62
2023/02/20 12:02:14;;;;;;;10.88;7.00;;;8.70;99.90;;;;;;5019559;28;20604;-63
2023/02/20 12:04:41;;;;;;;13.77;7.35;;;8.70;99.90;;;;;;5019815;28;20072;-63
2023/02/20 12:07:18;;;;;;;13.95;6.38;;;8.70;99.90;;;;;;5019768;28;20049;-62
2023/02/20 12:09:49;;;;;;;10.82;7.10;;;8.60;99.90;;;;;;5020572;28;20124;-63
2023/02/20 12:12:14;;;;;;;15.57;6.90;;;8.70;99.90;;;;;;5020170;28;20091;-62
2023/02/20 12:14:40;;;;;;;;;;;8.60;99.90;;;;;;5022333;28;20512;-63
2023/02/20 12:17:31;;;;;;;10.52;7.60;;;8.70;99.90;;;;;;5023658;28;19975;-62
2023/02/20 12:20:10;;;;;;;11.75;8.02;;;8.70;99.90;;;;;;5027259;28;20095;-64
2023/02/20 12:22:38;;;;;;;11.85;7.18;;;8.70;99.90;;;;;;5025158;28;20486;-63
2023/02/20 12:25:34;;;;;;;16.75;8.32;;;8.70;99.90;;;;;;5026820;28;20524;-65
2023/02/20 12:28:34;;;;;;;13.57;7.85;;;8.60;99.90;;;;;;5025491;28;20040;-64
2023/02/20 12:31:28;;;;;;;13.13;7.40;;;8.60;99.90;;;;;;5021001;28;20045;-62
2023/02/20 12:34:27;;;;;;;13.70;8.60;;;8.60;99.90;;;;;;5022054;28;20087;-61
2023/02/20 12:37:16;;;;;;;12.13;7.82;;;8.50;99.90;;;;;;5021178;28;20046;-62
2023/02/20 12:39:59;;;;;;;13.27;9.18;;;8.50;99.90;;;;;;5026173;28;20486;-62
2023/02/20 12:42:53;;;;;;;21.80;10.88;;;8.50;99.90;;;;;;5025578;28;20069;-63
2023/02/20 12:45:43;;;;;;;14.55;9.77;;;8.50;99.90;;;;;;5021472;28;20161;-62
2023/02/20 12:48:38;;;;;;;18.27;9.13;;;8.50;99.90;;;;;;5024474;28;20044;-63
2023/02/20 12:51:08;;;;;;;14.45;9.80;;;8.50;99.90;;;;;;5023071;28;21323;-64
2023/02/20 12:53:43;;;;;;;13.90;9.90;;;8.40;99.90;;;;;;5024096;28;20084;-62
2023/02/20 12:56:37;;;;;;;13.77;9.57;;;8.50;99.90;;;;;;5052303;28;20450;-61
2023/02/20 12:59:40;;;;;;;15.05;8.88;;;8.40;99.90;;;;;;5004993;28;20077;-62
2023/02/20 13:02:21;;;;;;;17.00;10.85;;;8.20;99.90;;;;;;5022084;28;20037;-64
2023/02/20 13:04:52;;;;;;;18.27;10.07;;;8.20;99.90;;;;;;5024533;28;20326;-63
2023/02/20 13:07:24;;;;;;;14.25;9.35;;;8.20;99.90;;;;;;5021022;28;20049;-62
2023/02/20 13:09:52;;;;;;;14.52;10.40;;;8.00;99.90;;;;;;5025610;28;20048;-64
2023/02/20 13:12:18;;;;;;;16.70;10.50;;;7.80;99.90;;;;;;5024469;28;20037;-60
2023/02/20 13:14:53;;;;;;;;;;;7.90;99.90;;;;;;5021987;28;20037;-64
2023/02/20 13:17:49;;;;;;;20.05;9.95;;;7.70;99.90;;;;;;5023358;28;19924;-63
2023/02/20 13:20:22;;;;;;;18.65;9.27;;;7.70;99.90;;;;;;5023692;28;20049;-63
2023/02/20 13:23:02;;;;;;;15.32;9.48;;;7.60;99.90;;;;;;5016403;28;20099;-63
2023/02/20 13:25:31;;;;;;;17.45;10.07;;;7.60;99.90;;;;;;5021121;28;20045;-62
2023/02/20 13:28:02;;;;;;;18.23;9.85;;;7.50;99.90;;;;;;5023274;28;20041;-63